createdAt,value
2023-01-02T00:02:07.927Z,96006.09
2023-01-02T00:04:34.451Z,96015.88
2023-01-02T00:07:01.003Z,96012.34
2023-01-02T00:09:27.461Z,96005.81
2023-01-02T00:11:53.903Z,96006.69
2023-01-02T00:14:20.362Z,96015.13
2023-01-02T00:16:46.841Z,96010.94
2023-01-02T00:19:13.291Z,96011.78
2023-01-02T00:21:39.811Z,96016.13
2023-01-02T00:24:06.364Z,96014.09
2023-01-02T00:26:32.819Z,96006.28
2023-01-02T00:29:01.018Z,96005.34
2023-01-02T00:31:27.527Z,95998.75
2023-01-02T00:33:54.584Z,95998.28
2023-01-02T00:36:21.052Z,95992.00
2023-01-02T00:38:47.514Z,95996.28
2023-01-02T00:41:14.099Z,95991.34
2023-01-02T00:43:40.544Z,95987.13
2023-01-02T00:46:11.568Z,95983.69
2023-01-02T00:48:39.295Z,95984.63
2023-01-02T00:51:06.016Z,95984.78
2023-01-02T00:53:32.508Z,95979.03
2023-01-02T00:55:59.037Z,95978.03
2023-01-02T00:58:25.508Z,95968.06
2023-01-02T01:00:52.012Z,95975.63
2023-01-02T01:03:18.915Z,95966.31
2023-01-02T01:05:45.423Z,95972.66
2023-01-02T01:08:11.905Z,95980.56
2023-01-02T01:10:38.365Z,95962.09
2023-01-02T01:13:05.776Z,95968.91
2023-01-02T01:15:35.651Z,95962.03
2023-01-02T01:18:02.218Z,95965.78
2023-01-02T01:20:28.960Z,95962.50
2023-01-02T01:22:55.538Z,95960.38
2023-01-02T01:25:22.185Z,95967.78
2023-01-02T01:27:48.647Z,95962.03
2023-01-02T01:30:15.121Z,95963.53
2023-01-02T01:32:41.601Z,95963.13
2023-01-02T01:35:08.090Z,95969.88
2023-01-02T01:37:34.540Z,95977.47
2023-01-02T01:40:01.018Z,95964.50
2023-01-02T01:42:34.937Z,95961.75
2023-01-02T01:45:01.863Z,95962.13
2023-01-02T01:47:40.485Z,95966.34
2023-01-02T01:50:21.209Z,95962.91
2023-01-02T01:52:53.963Z,95960.47
2023-01-02T01:55:26.162Z,95966.44
2023-01-02T01:57:58.317Z,95961.94
2023-01-02T02:00:25.100Z,95966.47
2023-01-02T02:02:58.768Z,95980.00
2023-01-02T02:05:30.180Z,95973.06
2023-01-02T02:08:05.058Z,95977.06
2023-01-02T02:10:31.690Z,95969.22
2023-01-02T02:12:58.180Z,95969.22
2023-01-02T02:15:39.362Z,95962.25
2023-01-02T02:18:40.071Z,95968.41
2023-01-02T02:21:27.920Z,95965.81
2023-01-02T02:24:35.063Z,95961.94
2023-01-02T02:27:32.246Z,95965.31
2023-01-02T02:30:15.681Z,95959.63
2023-01-02T02:33:10.532Z,95959.13
2023-01-02T02:35:59.388Z,95945.75
2023-01-02T02:38:52.022Z,95948.72
2023-01-02T02:41:31.723Z,95948.22
2023-01-02T02:44:03.898Z,95944.38
2023-01-02T02:47:01.665Z,95941.47
2023-01-02T02:49:40.147Z,95936.19
2023-01-02T02:52:19.081Z,95933.06
2023-01-02T02:55:01.140Z,95932.88
2023-01-02T02:57:31.030Z,95932.88
2023-01-02T02:59:57.582Z,95925.94
2023-01-02T03:02:24.196Z,95923.56
2023-01-02T03:04:58.579Z,95932.44
2023-01-02T03:07:39.760Z,95929.03
2023-01-02T03:10:12.093Z,95927.22
2023-01-02T03:13:00.962Z,95930.16
2023-01-02T03:15:41.008Z,95935.09
2023-01-02T03:18:27.568Z,95932.50
2023-01-02T03:21:09.043Z,95933.38
2023-01-02T03:23:44.998Z,95925.56
2023-01-02T03:26:22.521Z,95936.50
2023-01-02T03:28:56.945Z,95936.44
2023-01-02T03:31:30.713Z,95930.78
2023-01-02T03:34:08.462Z,95927.38
2023-01-02T03:36:39.131Z,95928.94
2023-01-02T03:39:13.647Z,95928.41
2023-01-02T03:42:09.846Z,95924.66
2023-01-02T03:44:50.444Z,95923.28
2023-01-02T03:47:27.559Z,95926.75
2023-01-02T03:50:02.430Z,95931.94
2023-01-02T03:52:29.016Z,95934.75
2023-01-02T03:54:57.830Z,95927.00
2023-01-02T03:57:42.873Z,95919.53
2023-01-02T04:00:17.234Z,95913.88
2023-01-02T04:03:03.173Z,95918.44
2023-01-02T04:05:40.537Z,95918.69
2023-01-02T04:08:17.016Z,95915.28
2023-01-02T04:10:50.748Z,95920.88
2023-01-02T04:13:28.886Z,95915.91
2023-01-02T04:15:58.808Z,95923.75
2023-01-02T04:18:34.072Z,95911.44
2023-01-02T04:21:11.113Z,95906.34
2023-01-02T04:23:45.226Z,95902.50
2023-01-02T04:27:01.592Z,95907.44
2023-01-02T04:29:28.360Z,95915.69
2023-01-02T04:31:54.751Z,95920.34
2023-01-02T04:34:25.380Z,95911.03
2023-01-02T04:36:51.916Z,95909.59
2023-01-02T04:39:23.376Z,95913.81
2023-01-02T04:41:50.201Z,95920.47
2023-01-02T04:44:16.640Z,95927.88
2023-01-02T04:46:43.144Z,95916.56
2023-01-02T04:49:10.691Z,95922.13
2023-01-02T04:51:37.212Z,95922.31
2023-01-02T04:54:03.947Z,95926.16
2023-01-02T04:56:30.408Z,95931.00
2023-01-02T04:58:57.115Z,95922.38
2023-01-02T05:01:23.794Z,95924.38
2023-01-02T05:03:50.809Z,95931.69
2023-01-02T05:06:17.322Z,95929.91
2023-01-02T05:08:44.208Z,95927.63
2023-01-02T05:11:14.610Z,95935.03
2023-01-02T05:13:41.335Z,95923.72
2023-01-02T05:16:09.425Z,95931.22
2023-01-02T05:18:36.147Z,95929.56
2023-01-02T05:21:13.172Z,95933.59
2023-01-02T05:23:39.648Z,95917.97
2023-01-02T05:26:10.891Z,95926.13
2023-01-02T05:28:38.902Z,95930.59
2023-01-02T05:31:05.520Z,95922.28
2023-01-02T05:33:31.990Z,95932.69
2023-01-02T05:35:58.445Z,95931.94
2023-01-02T05:38:24.912Z,95932.97
2023-01-02T05:40:59.986Z,95929.66
2023-01-02T05:43:26.426Z,95931.69
2023-01-02T05:45:52.888Z,95930.84
2023-01-02T05:48:19.356Z,95923.06
2023-01-02T05:50:45.802Z,95932.59
2023-01-02T05:53:12.273Z,95924.59
2023-01-02T05:55:38.717Z,95920.75
2023-01-02T05:58:05.149Z,95930.53
2023-01-02T06:00:31.626Z,95934.66
2023-01-02T06:02:58.187Z,95939.13
2023-01-02T06:05:26.950Z,95942.22
2023-01-02T06:07:53.418Z,95949.03
2023-01-02T06:10:19.871Z,95957.19
2023-01-02T06:12:46.336Z,95946.78
2023-01-02T06:15:12.813Z,95949.38
2023-01-02T06:17:39.271Z,95949.50
2023-01-02T06:20:06.380Z,95948.66
2023-01-02T06:22:32.836Z,95950.50
2023-01-02T06:24:59.327Z,95951.00
2023-01-02T06:27:25.799Z,95954.75
2023-01-02T06:29:52.320Z,95952.22
2023-01-02T06:32:18.807Z,95952.88
2023-01-02T06:34:45.307Z,95950.88
2023-01-02T06:37:11.772Z,95947.94
2023-01-02T06:39:38.216Z,95951.88
2023-01-02T06:42:04.682Z,95952.31
2023-01-02T06:44:31.255Z,95953.31
2023-01-02T06:46:57.736Z,95949.22
2023-01-02T06:49:24.218Z,95969.19
2023-01-02T06:51:50.676Z,95965.75
2023-01-02T06:54:17.157Z,95964.66
2023-01-02T06:56:43.632Z,95967.56
2023-01-02T06:59:10.098Z,95963.53
2023-01-02T07:01:36.675Z,95963.25
2023-01-02T07:04:03.231Z,95971.19
2023-01-02T07:06:29.747Z,95968.97
2023-01-02T07:08:56.216Z,95975.31
2023-01-02T07:11:24.749Z,95979.75
2023-01-02T07:13:54.116Z,95984.88
2023-01-02T07:16:22.590Z,95989.69
2023-01-02T07:18:49.475Z,95996.69
2023-01-02T07:21:17.015Z,95977.00
2023-01-02T07:23:43.838Z,95987.19
2023-01-02T07:26:11.281Z,95992.88
2023-01-02T07:28:38.831Z,95985.56
2023-01-02T07:31:09.001Z,95996.78
2023-01-02T07:33:35.601Z,95991.09
2023-01-02T07:36:05.606Z,95997.34
2023-01-02T07:38:32.893Z,95985.69
2023-01-02T07:40:59.394Z,95989.03
2023-01-02T07:43:26.560Z,96001.50
2023-01-02T07:45:54.926Z,95999.84
2023-01-02T07:48:21.490Z,95998.59
2023-01-02T07:50:47.983Z,96003.16
2023-01-02T07:53:14.440Z,96004.78
2023-01-02T07:55:40.992Z,96004.69
2023-01-02T07:58:07.593Z,96005.88
2023-01-02T08:00:34.047Z,96004.88
2023-01-02T08:03:00.777Z,96011.59
2023-01-02T08:05:27.237Z,96015.28
2023-01-02T08:07:53.728Z,96009.78
2023-01-02T08:10:20.225Z,96025.53
2023-01-02T08:12:46.822Z,96022.47
2023-01-02T08:15:13.365Z,96022.47
2023-01-02T08:17:39.810Z,96020.72
2023-01-02T08:20:08.229Z,96030.50
2023-01-02T08:22:35.105Z,96035.19
2023-01-02T08:25:02.252Z,96032.81
2023-01-02T08:27:29.128Z,96027.25
2023-01-02T08:29:55.604Z,96028.47
2023-01-02T08:32:22.067Z,96038.13
2023-01-02T08:34:48.584Z,96034.19
2023-01-02T08:37:15.093Z,96041.78
2023-01-02T08:39:41.541Z,96048.72
2023-01-02T08:42:08.100Z,96042.66
2023-01-02T08:44:36.100Z,96054.03
2023-01-02T08:47:02.572Z,96050.44
2023-01-02T08:49:29.041Z,96053.91
2023-01-02T08:51:55.736Z,96058.00
2023-01-02T08:54:22.191Z,96048.53
2023-01-02T08:56:49.074Z,96052.63
2023-01-02T08:59:15.632Z,96062.50
2023-01-02T09:01:42.207Z,96057.47
2023-01-02T09:04:12.754Z,96060.34
2023-01-02T09:06:42.080Z,96056.91
2023-01-02T09:09:12.508Z,96072.25
2023-01-02T09:11:52.563Z,96069.78
2023-01-02T09:14:21.781Z,96069.13
2023-01-02T09:16:49.769Z,96071.97
2023-01-02T09:19:16.447Z,96072.28
2023-01-02T09:21:42.959Z,96077.25
2023-01-02T09:24:09.768Z,96079.38
2023-01-02T09:26:36.729Z,96080.44
2023-01-02T09:29:04.091Z,96086.63
2023-01-02T09:31:30.607Z,96088.41
2023-01-02T09:33:57.225Z,96080.59
2023-01-02T09:36:23.659Z,96085.28
2023-01-02T09:38:55.219Z,96087.13
2023-01-02T09:41:21.738Z,96084.88
2023-01-02T09:43:58.153Z,96083.78
2023-01-02T09:46:36.848Z,96091.81
2023-01-02T09:49:04.362Z,96093.84
2023-01-02T09:51:34.006Z,96091.97
2023-01-02T09:54:01.377Z,96091.84
2023-01-02T09:56:36.873Z,96093.53
2023-01-02T09:59:30.813Z,96094.59
2023-01-02T10:02:17.419Z,96098.03
2023-01-02T10:05:14.015Z,96101.00
2023-01-02T10:07:43.367Z,96090.59
2023-01-02T10:10:39.534Z,96095.06
2023-01-02T10:13:20.691Z,96097.03
2023-01-02T10:15:51.261Z,96097.78
2023-01-02T10:18:29.937Z,96107.88
2023-01-02T10:21:10.092Z,96105.53
2023-01-02T10:23:44.964Z,96119.47
2023-01-02T10:26:23.839Z,96115.34
2023-01-02T10:29:25.219Z,96115.41
2023-01-02T10:31:58.760Z,96116.13
2023-01-02T10:34:25.305Z,96122.16
2023-01-02T10:36:52.308Z,96122.00
2023-01-02T10:39:21.993Z,96130.16
2023-01-02T10:41:54.686Z,96125.50
2023-01-02T10:44:41.314Z,96127.53
2023-01-02T10:47:33.445Z,96128.16
2023-01-02T10:50:01.369Z,96117.75
2023-01-02T10:52:31.845Z,96118.13
2023-01-02T10:55:00.483Z,96113.75
2023-01-02T10:57:39.109Z,96117.75
2023-01-02T11:00:06.676Z,96111.31
2023-01-02T11:02:39.389Z,96110.63
2023-01-02T11:05:08.617Z,96120.66
2023-01-02T11:07:38.020Z,96124.53
2023-01-02T11:10:05.002Z,96117.16
2023-01-02T11:12:31.512Z,96118.19
2023-01-02T11:15:12.867Z,96131.66
2023-01-02T11:17:43.934Z,96120.38
2023-01-02T11:20:37.322Z,96126.38
2023-01-02T11:23:04.772Z,96127.16
2023-01-02T11:25:42.741Z,96136.47
2023-01-02T11:28:23.803Z,96133.94
2023-01-02T11:31:00.287Z,96131.09
2023-01-02T11:33:31.374Z,96130.53
2023-01-02T11:36:05.169Z,96135.03
2023-01-02T11:38:54.706Z,96133.75
2023-01-02T11:41:28.736Z,96137.53
2023-01-02T11:43:59.174Z,96140.81
2023-01-02T11:46:34.334Z,96131.66
2023-01-02T11:49:11.474Z,96135.50
2023-01-02T11:51:40.779Z,96136.03
2023-01-02T11:54:15.725Z,96138.91
2023-01-02T11:56:45.693Z,96146.88
2023-01-02T11:59:18.433Z,96149.38
2023-01-02T12:02:23.906Z,96153.19
2023-01-02T12:04:50.477Z,96154.28
2023-01-02T12:07:44.804Z,96152.91
2023-01-02T12:10:43.635Z,96159.66
2023-01-02T12:13:25.259Z,96171.97
2023-01-02T12:16:02.010Z,96166.09
2023-01-02T12:18:56.164Z,96168.84
2023-01-02T12:21:36.227Z,96173.00
2023-01-02T12:24:20.937Z,96181.06
2023-01-02T12:27:10.431Z,96174.47
2023-01-02T12:29:46.062Z,96180.66
2023-01-02T12:32:36.179Z,96179.50
2023-01-02T12:35:14.539Z,96177.00
2023-01-02T12:37:54.828Z,96187.06
2023-01-02T12:40:42.593Z,96182.13
2023-01-02T12:43:34.221Z,96186.97
2023-01-02T12:46:00.702Z,96189.25
2023-01-02T12:48:55.539Z,96187.91
2023-01-02T12:51:48.513Z,96192.13
2023-01-02T12:54:19.762Z,96194.75
2023-01-02T12:57:22.331Z,96198.91
2023-01-02T13:00:07.975Z,96195.50
2023-01-02T13:02:47.663Z,96197.56
2023-01-02T13:05:20.099Z,96196.28
2023-01-02T13:07:57.140Z,96204.19
2023-01-02T13:10:28.137Z,96200.63
2023-01-02T13:12:58.794Z,96201.69
2023-01-02T13:15:30.656Z,96204.41
2023-01-02T13:18:22.134Z,96209.16
2023-01-02T13:21:02.931Z,96210.38
2023-01-02T13:23:41.701Z,96209.75
2023-01-02T13:26:18.276Z,96216.88
2023-01-02T13:29:03.893Z,96227.50
2023-01-02T13:31:46.412Z,96214.69
2023-01-02T13:34:26.267Z,96218.28
2023-01-02T13:37:13.099Z,96230.53
2023-01-02T13:39:46.186Z,96226.56
2023-01-02T13:42:26.958Z,96240.19
2023-01-02T13:44:57.763Z,96239.06
2023-01-02T13:47:34.734Z,96244.50
2023-01-02T13:50:26.820Z,96247.16
2023-01-02T13:53:26.259Z,96253.88
2023-01-02T13:56:16.259Z,96254.81
2023-01-02T13:58:42.674Z,96259.66
2023-01-02T14:01:37.896Z,96253.94
2023-01-02T14:04:07.182Z,96263.28
2023-01-02T14:06:36.193Z,96257.94
2023-01-02T14:09:05.812Z,96271.88
2023-01-02T14:11:57.720Z,96275.69
2023-01-02T14:14:44.895Z,96275.97
2023-01-02T14:17:17.119Z,96299.78
2023-01-02T14:19:44.959Z,96294.56
2023-01-02T14:22:18.283Z,96293.97
2023-01-02T14:24:49.753Z,96302.94
2023-01-02T14:27:16.141Z,96305.63
2023-01-02T14:29:52.812Z,96308.25
2023-01-02T14:32:26.155Z,96308.47
2023-01-02T14:34:56.164Z,96317.84
2023-01-02T14:37:47.808Z,96324.66
2023-01-02T14:40:23.413Z,96328.47
2023-01-02T14:43:01.444Z,96337.59
2023-01-02T14:45:28.740Z,96331.28
2023-01-02T14:48:08.787Z,96336.28
2023-01-02T14:50:37.141Z,96349.97
2023-01-02T14:53:26.820Z,96346.66
2023-01-02T14:56:05.049Z,96351.13
2023-01-02T14:58:44.952Z,96352.28
2023-01-02T15:01:42.216Z,96346.31
2023-01-02T15:04:12.946Z,96346.31
2023-01-02T15:06:42.794Z,96352.25
2023-01-02T15:09:30.075Z,96347.66
2023-01-02T15:12:00.776Z,96343.69
2023-01-02T15:14:27.289Z,96355.59
2023-01-02T15:16:59.847Z,96342.69
2023-01-02T15:19:30.489Z,96356.69
2023-01-02T15:21:57.201Z,96360.44
2023-01-02T15:24:29.644Z,96364.44
2023-01-02T15:27:14.245Z,96366.13
2023-01-02T15:29:49.359Z,96367.44
2023-01-02T15:32:22.593Z,96364.28
2023-01-02T15:34:49.374Z,96369.03
2023-01-02T15:37:22.311Z,96370.03
2023-01-02T15:39:52.920Z,96370.59
2023-01-02T15:42:26.496Z,96373.97
2023-01-02T15:44:53.701Z,96378.41
2023-01-02T15:47:27.635Z,96378.16
2023-01-02T15:49:55.837Z,96382.13
2023-01-02T15:52:26.274Z,96382.22
2023-01-02T15:54:54.146Z,96388.56
2023-01-02T15:57:26.731Z,96386.53
2023-01-02T15:59:54.208Z,96389.13
2023-01-02T16:02:41.170Z,96392.09
2023-01-02T16:05:16.504Z,96395.38
2023-01-02T16:07:50.665Z,96393.44
2023-01-02T16:10:22.363Z,96394.03
2023-01-02T16:13:07.976Z,96394.75
2023-01-02T16:15:35.650Z,96398.72
2023-01-02T16:18:03.287Z,96398.34
2023-01-02T16:20:30.692Z,96408.59
2023-01-02T16:23:03.074Z,96411.16
2023-01-02T16:25:35.797Z,96411.50
2023-01-02T16:28:33.912Z,96418.19
2023-01-02T16:31:14.118Z,96412.13
2023-01-02T16:33:42.402Z,96410.94
2023-01-02T16:36:14.792Z,96407.00
2023-01-02T16:39:27.610Z,96413.22
2023-01-02T16:41:58.126Z,96412.84
2023-01-02T16:44:24.604Z,96413.66
2023-01-02T16:46:51.132Z,96412.38
2023-01-02T16:49:23.145Z,96418.13
2023-01-02T16:51:54.219Z,96424.28
2023-01-02T16:54:20.698Z,96416.63
2023-01-02T16:56:48.447Z,96422.47
2023-01-02T16:59:14.915Z,96428.41
2023-01-02T17:01:41.535Z,96428.13
2023-01-02T17:04:08.133Z,96429.31
2023-01-02T17:06:35.275Z,96425.34
2023-01-02T17:09:01.770Z,96433.72
2023-01-02T17:11:28.375Z,96433.06
2023-01-02T17:13:54.849Z,96434.56
2023-01-02T17:16:21.321Z,96428.19
2023-01-02T17:18:47.809Z,96425.53
2023-01-02T17:21:14.567Z,96422.88
2023-01-02T17:23:41.499Z,96432.00
2023-01-02T17:26:08.151Z,96427.19
2023-01-02T17:28:34.691Z,96427.19
2023-01-02T17:31:01.172Z,96434.09
2023-01-02T17:33:27.692Z,96429.75
2023-01-02T17:35:54.164Z,96442.66
2023-01-02T17:38:20.637Z,96440.16
2023-01-02T17:40:47.122Z,96448.78
2023-01-02T17:43:13.628Z,96442.78
2023-01-02T17:45:41.694Z,96445.34
2023-01-02T17:48:12.723Z,96443.84
2023-01-02T17:50:40.818Z,96452.34
2023-01-02T17:53:08.110Z,96444.16
2023-01-02T17:55:34.932Z,96448.13
2023-01-02T17:58:01.431Z,96455.72
2023-01-02T18:00:28.420Z,96461.00
2023-01-02T18:02:55.192Z,96466.94
2023-01-02T18:05:22.679Z,96453.25
2023-01-02T18:07:49.193Z,96458.03
2023-01-02T18:10:20.035Z,96458.03
2023-01-02T18:12:48.153Z,96463.16
2023-01-02T18:15:17.110Z,96460.25
2023-01-02T18:17:43.607Z,96463.63
2023-01-02T18:20:18.429Z,96466.94
2023-01-02T18:22:49.950Z,96463.66
2023-01-02T18:25:25.024Z,96476.88
2023-01-02T18:27:53.247Z,96465.97
2023-01-02T18:30:24.991Z,96471.56
2023-01-02T18:33:03.827Z,96466.28
2023-01-02T18:38:36.114Z,96462.34
2023-01-02T18:41:14.141Z,96467.56
2023-01-02T18:43:40.691Z,96471.25
2023-01-02T18:46:14.915Z,96461.00
2023-01-02T18:48:41.589Z,96470.03
2023-01-02T18:51:16.055Z,96462.97
2023-01-02T18:53:47.313Z,96468.25
2023-01-02T18:56:22.806Z,96474.28
2023-01-02T18:58:58.340Z,96473.59
2023-01-02T19:01:34.902Z,96487.38
2023-01-02T19:04:20.581Z,96490.59
2023-01-02T19:06:55.583Z,96494.09
2023-01-02T19:09:29.121Z,96490.81
2023-01-02T19:12:15.451Z,96497.91
2023-01-02T19:14:43.867Z,96500.25
2023-01-02T19:17:22.770Z,96494.91
2023-01-02T19:19:50.211Z,96500.94
2023-01-02T19:22:21.151Z,96508.13
2023-01-02T19:24:48.072Z,96501.44
2023-01-02T19:27:37.974Z,96515.53
2023-01-02T19:30:29.628Z,96527.31
2023-01-02T19:32:56.541Z,96524.97
2023-01-02T19:35:29.065Z,96532.81
2023-01-02T19:37:56.528Z,96528.03
2023-01-02T19:40:24.102Z,96524.94
2023-01-02T19:42:53.067Z,96543.25
2023-01-02T19:45:24.693Z,96539.09
2023-01-02T19:47:52.345Z,96554.50
2023-01-02T19:50:22.010Z,96546.56
2023-01-02T19:52:49.243Z,96547.00
2023-01-02T19:55:17.007Z,96552.28
2023-01-02T19:57:44.357Z,96548.56
2023-01-02T20:00:13.309Z,96557.63
2023-01-02T20:02:43.977Z,96548.50
2023-01-02T20:05:14.725Z,96550.16
2023-01-02T20:07:44.584Z,96558.91
2023-01-02T20:10:12.122Z,96553.31
2023-01-02T20:12:39.154Z,96556.94
2023-01-02T20:15:17.342Z,96556.50
2023-01-02T20:17:45.349Z,96553.09
2023-01-02T20:20:14.939Z,96567.56
2023-01-02T20:22:41.763Z,96566.88
2023-01-02T20:25:08.251Z,96564.47
2023-01-02T20:27:34.833Z,96568.69
2023-01-02T20:30:01.428Z,96562.34
2023-01-02T20:32:27.911Z,96564.34
2023-01-02T20:34:54.511Z,96572.66
2023-01-02T20:37:21.475Z,96567.28
2023-01-02T20:39:49.588Z,96572.03
2023-01-02T20:42:16.325Z,96581.22
2023-01-02T20:44:43.028Z,96579.47
2023-01-02T20:47:09.691Z,96574.78
2023-01-02T20:49:36.164Z,96568.19
2023-01-02T20:52:02.700Z,96566.22
2023-01-02T20:54:29.181Z,96561.03
2023-01-02T20:56:55.637Z,96573.00
2023-01-02T20:59:22.845Z,96570.50
2023-01-02T21:01:49.819Z,96569.44
2023-01-02T21:04:22.579Z,96574.13
2023-01-02T21:06:54.990Z,96568.19
2023-01-02T21:09:21.510Z,96575.31
2023-01-02T21:11:47.978Z,96574.88
2023-01-02T21:14:14.430Z,96575.25
2023-01-02T21:16:40.936Z,96577.81
2023-01-02T21:19:07.433Z,96592.38
2023-01-02T21:21:33.903Z,96586.78
2023-01-02T21:24:00.388Z,96590.03
2023-01-02T21:26:26.914Z,96596.50
2023-01-02T21:28:53.429Z,96588.91
2023-01-02T21:31:20.555Z,96592.06
2023-01-02T21:33:48.028Z,96595.44
2023-01-02T21:36:15.137Z,96601.75
2023-01-02T21:38:42.571Z,96603.31
2023-01-02T21:41:09.123Z,96596.38
2023-01-02T21:43:35.602Z,96601.69
2023-01-02T21:46:02.188Z,96604.50
2023-01-02T21:48:28.673Z,96610.28
2023-01-02T21:50:55.166Z,96601.47
2023-01-02T21:53:21.838Z,96610.22
2023-01-02T21:55:48.281Z,96603.53
2023-01-02T21:58:15.201Z,96609.00
2023-01-02T22:00:42.796Z,96610.31
2023-01-02T22:03:09.808Z,96604.56
2023-01-02T22:05:36.399Z,96611.56
2023-01-02T22:08:02.973Z,96610.59
2023-01-02T22:10:29.533Z,96612.75
2023-01-02T22:12:56.037Z,96604.69
2023-01-02T22:15:22.796Z,96612.75
2023-01-02T22:17:49.276Z,96618.59
2023-01-02T22:20:16.337Z,96618.25
2023-01-02T22:22:42.805Z,96621.56
2023-01-02T22:25:10.208Z,96627.84
2023-01-02T22:27:37.700Z,96622.81
2023-01-02T22:30:27.471Z,96613.25
2023-01-02T22:32:51.610Z,96618.22
2023-01-02T22:35:18.594Z,96620.06
2023-01-02T22:37:45.307Z,96616.13
2023-01-02T22:40:12.509Z,96618.81
2023-01-02T22:45:30.996Z,96611.25
2023-01-02T22:48:03.009Z,96613.72
2023-01-02T22:50:39.895Z,96618.81
2023-01-02T22:53:16.936Z,96622.94
2023-01-02T22:55:43.412Z,96622.00
2023-01-02T22:58:09.883Z,96620.84
2023-01-02T23:00:36.367Z,96621.91
2023-01-02T23:03:02.890Z,96621.25
2023-01-02T23:05:29.400Z,96625.19
2023-01-02T23:07:55.865Z,96630.84
2023-01-02T23:10:22.671Z,96632.41
2023-01-02T23:12:49.161Z,96630.97
2023-01-02T23:15:15.672Z,96625.25
2023-01-02T23:17:42.132Z,96624.47
2023-01-02T23:20:08.783Z,96623.03
2023-01-02T23:22:35.271Z,96625.03
2023-01-02T23:25:01.752Z,96628.34
2023-01-02T23:27:28.209Z,96622.53
2023-01-02T23:29:54.693Z,96623.78
2023-01-02T23:32:21.158Z,96617.66
2023-01-02T23:34:47.627Z,96610.56
2023-01-02T23:37:14.096Z,96610.25
2023-01-02T23:39:40.580Z,96615.53
2023-01-02T23:42:07.049Z,96615.88
2023-01-02T23:44:33.576Z,96622.13
2023-01-02T23:47:05.487Z,96619.84
2023-01-02T23:49:35.457Z,96612.06
2023-01-02T23:52:01.916Z,96609.47
2023-01-02T23:54:30.720Z,96610.28
2023-01-02T23:56:57.215Z,96611.91
2023-01-02T23:59:25.282Z,96616.53
